sensor_id;sensor_type;location;lat;lon;timestamp;pressure;altitude;pressure_sealevel;temperature;humidity
14089;BME280;7120;52.890;6.040;2023-07-20T00:01:26;101431.50;;;15.67;100.00
14089;BME280;7120;52.890;6.040;2023-07-20T00:03:51;101432.31;;;15.68;100.00
14089;BME280;7120;52.890;6.040;2023-07-20T00:06:29;101435.25;;;15.88;100.00
14089;BME280;7120;52.890;6.040;2023-07-20T00:08:55;101421.94;;;15.99;100.00
14089;BME280;7120;52.890;6.040;2023-07-20T00:11:21;101422.13;;;16.03;100.00
14089;BME280;7120;52.890;6.040;2023-07-20T00:13:46;101424.06;;;16.02;100.00
14089;BME280;7120;52.890;6.040;2023-07-20T00:16:11;101430.88;;;15.96;100.00
14089;BME280;7120;52.890;6.040;2023-07-20T00:18:37;101424.38;;;15.92;100.00
14089;BME280;7120;52.890;6.040;2023-07-20T00:21:02;101420.97;;;15.78;100.00
14089;BME280;7120;52.890;6.040;2023-07-20T00:23:28;101427.94;;;15.84;100.00
14089;BME280;7120;52.890;6.040;2023-07-20T00:25:53;101428.28;;;15.82;100.00
14089;BME280;7120;52.890;6.040;2023-07-20T00:28:19;101417.38;;;15.69;100.00
14089;BME280;7120;52.890;6.040;2023-07-20T00:30:45;101423.84;;;15.64;100.00
14089;BME280;7120;52.890;6.040;2023-07-20T00:33:11;101424.63;;;15.56;100.00
14089;BME280;7120;52.890;6.040;2023-07-20T00:35:37;101414.25;;;15.44;100.00
14089;BME280;7120;52.890;6.040;2023-07-20T00:38:04;101419.41;;;15.37;100.00
14089;BME280;7120;52.890;6.040;2023-07-20T00:40:39;101425.34;;;15.22;100.00
14089;BME280;7120;52.890;6.040;2023-07-20T00:43:05;101428.25;;;15.17;100.00
14089;BME280;7120;52.890;6.040;2023-07-20T00:45:31;101417.84;;;15.05;100.00
14089;BME280;7120;52.890;6.040;2023-07-20T00:47:57;101424.75;;;14.94;100.00
14089;BME280;7120;52.890;6.040;2023-07-20T00:50:24;101438.16;;;14.87;100.00
14089;BME280;7120;52.890;6.040;2023-07-20T00:52:50;101437.94;;;14.74;100.00
14089;BME280;7120;52.890;6.040;2023-07-20T00:55:15;101437.88;;;14.66;100.00
14089;BME280;7120;52.890;6.040;2023-07-20T00:57:41;101442.03;;;14.54;100.00
14089;BME280;7120;52.890;6.040;2023-07-20T01:00:07;101434.56;;;14.33;100.00
14089;BME280;7120;52.890;6.040;2023-07-20T01:02:32;101434.78;;;14.22;100.00
14089;BME280;7120;52.890;6.040;2023-07-20T01:04:58;101437.81;;;14.12;100.00
14089;BME280;7120;52.890;6.040;2023-07-20T01:07:27;101441.91;;;14.01;100.00
14089;BME280;7120;52.890;6.040;2023-07-20T01:10:05;101441.34;;;13.90;100.00
14089;BME280;7120;52.890;6.040;2023-07-20T01:12:41;101428.13;;;13.79;100.00
14089;BME280;7120;52.890;6.040;2023-07-20T01:15:08;101429.56;;;13.76;100.00
14089;BME280;7120;52.890;6.040;2023-07-20T01:17:34;101424.00;;;13.67;100.00
14089;BME280;7120;52.890;6.040;2023-07-20T01:19:59;101432.03;;;13.64;100.00
14089;BME280;7120;52.890;6.040;2023-07-20T01:25:43;101430.03;;;13.42;100.00
14089;BME280;7120;52.890;6.040;2023-07-20T01:30:59;101434.59;;;13.19;100.00
14089;BME280;7120;52.890;6.040;2023-07-20T01:33:28;101431.84;;;13.19;100.00
14089;BME280;7120;52.890;6.040;2023-07-20T01:35:58;101434.56;;;13.05;100.00
14089;BME280;7120;52.890;6.040;2023-07-20T01:38:25;101433.34;;;12.98;100.00
14089;BME280;7120;52.890;6.040;2023-07-20T01:40:51;101432.00;;;12.95;100.00
14089;BME280;7120;52.890;6.040;2023-07-20T01:43:17;101432.41;;;12.88;100.00
14089;BME280;7120;52.890;6.040;2023-07-20T01:45:43;101432.13;;;12.90;100.00
14089;BME280;7120;52.890;6.040;2023-07-20T01:48:09;101433.22;;;12.89;100.00
14089;BME280;7120;52.890;6.040;2023-07-20T01:50:34;101432.31;;;12.93;100.00
14089;BME280;7120;52.890;6.040;2023-07-20T01:53:00;101428.94;;;12.97;100.00
14089;BME280;7120;52.890;6.040;2023-07-20T01:55:26;101437.41;;;13.00;100.00
14089;BME280;7120;52.890;6.040;2023-07-20T01:57:52;101436.19;;;13.06;100.00
14089;BME280;7120;52.890;6.040;2023-07-20T02:00:18;101434.44;;;12.97;100.00
14089;BME280;7120;52.890;6.040;2023-07-20T02:02:46;101435.16;;;13.02;100.00
14089;BME280;7120;52.890;6.040;2023-07-20T02:05:12;101442.19;;;13.08;100.00
14089;BME280;7120;52.890;6.040;2023-07-20T02:07:37;101435.88;;;13.08;100.00
14089;BME280;7120;52.890;6.040;2023-07-20T02:10:03;101429.78;;;12.97;100.00
14089;BME280;7120;52.890;6.040;2023-07-20T02:12:28;101433.13;;;12.94;100.00
14089;BME280;7120;52.890;6.040;2023-07-20T02:14:53;101437.38;;;12.86;100.00
14089;BME280;7120;52.890;6.040;2023-07-20T02:17:19;101433.94;;;12.95;100.00
14089;BME280;7120;52.890;6.040;2023-07-20T02:19:44;101434.25;;;12.93;100.00
14089;BME280;7120;52.890;6.040;2023-07-20T02:22:10;101432.22;;;12.85;100.00
14089;BME280;7120;52.890;6.040;2023-07-20T02:24:36;101431.91;;;12.86;100.00
14089;BME280;7120;52.890;6.040;2023-07-20T02:27:01;101424.38;;;12.78;100.00
14089;BME280;7120;52.890;6.040;2023-07-20T02:29:27;101435.22;;;12.70;100.00
14089;BME280;7120;52.890;6.040;2023-07-20T02:31:52;101430.72;;;12.60;100.00
14089;BME280;7120;52.890;6.040;2023-07-20T02:34:18;101432.34;;;12.61;100.00
14089;BME280;7120;52.890;6.040;2023-07-20T02:36:43;101437.31;;;12.59;100.00
14089;BME280;7120;52.890;6.040;2023-07-20T02:39:09;101428.66;;;12.52;100.00
14089;BME280;7120;52.890;6.040;2023-07-20T02:41:34;101433.47;;;12.60;100.00
14089;BME280;7120;52.890;6.040;2023-07-20T02:44:00;101435.19;;;12.56;100.00
14089;BME280;7120;52.890;6.040;2023-07-20T02:46:27;101445.38;;;12.55;100.00
14089;BME280;7120;52.890;6.040;2023-07-20T02:48:55;101437.44;;;12.68;100.00
14089;BME280;7120;52.890;6.040;2023-07-20T02:51:20;101441.63;;;12.65;100.00
14089;BME280;7120;52.890;6.040;2023-07-20T02:53:46;101439.94;;;12.50;100.00
14089;BME280;7120;52.890;6.040;2023-07-20T02:56:11;101443.94;;;12.58;100.00
14089;BME280;7120;52.890;6.040;2023-07-20T02:58:41;101441.28;;;12.53;100.00
14089;BME280;7120;52.890;6.040;2023-07-20T03:01:08;101442.66;;;12.36;100.00
14089;BME280;7120;52.890;6.040;2023-07-20T03:03:35;101450.06;;;12.36;100.00
14089;BME280;7120;52.890;6.040;2023-07-20T03:06:06;101447.91;;;12.33;100.00
14089;BME280;7120;52.890;6.040;2023-07-20T03:08:34;101442.34;;;12.38;100.00
14089;BME280;7120;52.890;6.040;2023-07-20T03:11:00;101448.63;;;12.38;100.00
14089;BME280;7120;52.890;6.040;2023-07-20T03:13:26;101445.16;;;12.33;100.00
14089;BME280;7120;52.890;6.040;2023-07-20T03:15:52;101449.84;;;12.32;100.00
14089;BME280;7120;52.890;6.040;2023-07-20T03:18:18;101446.66;;;12.25;100.00
14089;BME280;7120;52.890;6.040;2023-07-20T03:20:43;101450.00;;;12.22;100.00
14089;BME280;7120;52.890;6.040;2023-07-20T03:23:08;101460.22;;;12.17;100.00
14089;BME280;7120;52.890;6.040;2023-07-20T03:25:34;101461.41;;;12.10;100.00
14089;BME280;7120;52.890;6.040;2023-07-20T03:27:59;101457.28;;;12.13;100.00
14089;BME280;7120;52.890;6.040;2023-07-20T03:30:24;101455.50;;;12.22;100.00
14089;BME280;7120;52.890;6.040;2023-07-20T03:32:50;101452.31;;;12.15;100.00
14089;BME280;7120;52.890;6.040;2023-07-20T03:35:16;101454.53;;;12.13;100.00
14089;BME280;7120;52.890;6.040;2023-07-20T03:37:41;101457.03;;;12.09;100.00
14089;BME280;7120;52.890;6.040;2023-07-20T03:40:07;101458.31;;;11.98;100.00
14089;BME280;7120;52.890;6.040;2023-07-20T03:42:33;101451.63;;;12.04;100.00
14089;BME280;7120;52.890;6.040;2023-07-20T03:44:59;101451.81;;;12.13;100.00
14089;BME280;7120;52.890;6.040;2023-07-20T03:47:24;101443.41;;;12.04;100.00
14089;BME280;7120;52.890;6.040;2023-07-20T03:49:49;101456.53;;;12.07;100.00
14089;BME280;7120;52.890;6.040;2023-07-20T03:52:15;101454.00;;;12.11;100.00
14089;BME280;7120;52.890;6.040;2023-07-20T03:54:40;101451.34;;;12.06;100.00
14089;BME280;7120;52.890;6.040;2023-07-20T03:57:05;101457.41;;;12.03;100.00
14089;BME280;7120;52.890;6.040;2023-07-20T03:59:31;101449.56;;;11.96;100.00
14089;BME280;7120;52.890;6.040;2023-07-20T04:01:56;101459.84;;;12.04;100.00
14089;BME280;7120;52.890;6.040;2023-07-20T04:04:21;101460.47;;;12.01;100.00
14089;BME280;7120;52.890;6.040;2023-07-20T04:06:47;101444.97;;;12.10;100.00
14089;BME280;7120;52.890;6.040;2023-07-20T04:09:12;101450.38;;;12.16;100.00
14089;BME280;7120;52.890;6.040;2023-07-20T04:11:38;101454.69;;;12.22;100.00
14089;BME280;7120;52.890;6.040;2023-07-20T04:14:04;101453.88;;;12.21;100.00
14089;BME280;7120;52.890;6.040;2023-07-20T04:16:29;101460.16;;;12.22;100.00
14089;BME280;7120;52.890;6.040;2023-07-20T04:18:58;101464.16;;;12.29;100.00
14089;BME280;7120;52.890;6.040;2023-07-20T04:21:27;101461.34;;;12.34;100.00
14089;BME280;7120;52.890;6.040;2023-07-20T04:23:53;101456.56;;;12.40;100.00
14089;BME280;7120;52.890;6.040;2023-07-20T04:26:18;101461.91;;;12.50;100.00
14089;BME280;7120;52.890;6.040;2023-07-20T04:28:44;101466.50;;;12.55;100.00
14089;BME280;7120;52.890;6.040;2023-07-20T04:31:13;101468.28;;;12.46;100.00
14089;BME280;7120;52.890;6.040;2023-07-20T04:33:39;101462.47;;;12.47;100.00
14089;BME280;7120;52.890;6.040;2023-07-20T04:36:05;101463.09;;;12.44;100.00
14089;BME280;7120;52.890;6.040;2023-07-20T04:38:30;101464.16;;;12.29;100.00
14089;BME280;7120;52.890;6.040;2023-07-20T04:40:56;101473.94;;;12.17;100.00
14089;BME280;7120;52.890;6.040;2023-07-20T04:43:21;101479.84;;;12.05;100.00
14089;BME280;7120;52.890;6.040;2023-07-20T04:45:46;101478.91;;;11.96;100.00
14089;BME280;7120;52.890;6.040;2023-07-20T04:48:14;101486.25;;;12.00;100.00
14089;BME280;7120;52.890;6.040;2023-07-20T04:50:41;101490.41;;;12.17;100.00
14089;BME280;7120;52.890;6.040;2023-07-20T04:53:06;101492.38;;;12.49;100.00
14089;BME280;7120;52.890;6.040;2023-07-20T04:55:32;101494.50;;;12.52;100.00
14089;BME280;7120;52.890;6.040;2023-07-20T04:58:00;101496.81;;;12.45;100.00
14089;BME280;7120;52.890;6.040;2023-07-20T05:00:26;101504.22;;;12.63;100.00
14089;BME280;7120;52.890;6.040;2023-07-20T05:02:51;101503.03;;;12.69;100.00
14089;BME280;7120;52.890;6.040;2023-07-20T05:05:17;101497.41;;;13.07;100.00
14089;BME280;7120;52.890;6.040;2023-07-20T05:07:42;101507.25;;;13.27;100.00
14089;BME280;7120;52.890;6.040;2023-07-20T05:10:09;101504.19;;;13.42;100.00
14089;BME280;7120;52.890;6.040;2023-07-20T05:12:34;101502.34;;;13.65;100.00
14089;BME280;7120;52.890;6.040;2023-07-20T05:14:59;101501.66;;;14.09;100.00
14089;BME280;7120;52.890;6.040;2023-07-20T05:17:25;101497.72;;;14.74;100.00
14089;BME280;7120;52.890;6.040;2023-07-20T05:19:50;101498.84;;;15.04;100.00
14089;BME280;7120;52.890;6.040;2023-07-20T05:22:16;101495.09;;;15.31;100.00
14089;BME280;7120;52.890;6.040;2023-07-20T05:24:43;101495.56;;;15.24;100.00
14089;BME280;7120;52.890;6.040;2023-07-20T05:27:08;101495.41;;;15.29;100.00
14089;BME280;7120;52.890;6.040;2023-07-20T05:29:34;101482.59;;;15.25;100.00
14089;BME280;7120;52.890;6.040;2023-07-20T05:31:59;101494.78;;;15.32;100.00
14089;BME280;7120;52.890;6.040;2023-07-20T05:34:24;101490.28;;;15.45;100.00
14089;BME280;7120;52.890;6.040;2023-07-20T05:36:50;101486.09;;;15.56;100.00
14089;BME280;7120;52.890;6.040;2023-07-20T05:39:18;101491.97;;;15.63;100.00
14089;BME280;7120;52.890;6.040;2023-07-20T05:41:43;101489.41;;;15.67;100.00
14089;BME280;7120;52.890;6.040;2023-07-20T05:44:09;101484.47;;;15.55;100.00
14089;BME280;7120;52.890;6.040;2023-07-20T05:46:34;101491.09;;;15.46;100.00
14089;BME280;7120;52.890;6.040;2023-07-20T05:49:00;101483.97;;;15.53;100.00
14089;BME280;7120;52.890;6.040;2023-07-20T05:51:26;101489.50;;;15.53;100.00
14089;BME280;7120;52.890;6.040;2023-07-20T05:53:52;101500.69;;;15.57;100.00
14089;BME280;7120;52.890;6.040;2023-07-20T05:56:17;101500.25;;;15.63;100.00
14089;BME280;7120;52.890;6.040;2023-07-20T05:58:43;101499.84;;;15.79;100.00
14089;BME280;7120;52.890;6.040;2023-07-20T06:01:08;101495.25;;;15.65;100.00
14089;BME280;7120;52.890;6.040;2023-07-20T06:03:34;101491.56;;;15.79;100.00
14089;BME280;7120;52.890;6.040;2023-07-20T06:06:03;101494.13;;;15.84;100.00
14089;BME280;7120;52.890;6.040;2023-07-20T06:08:30;101490.41;;;15.80;100.00
14089;BME280;7120;52.890;6.040;2023-07-20T06:10:56;101488.50;;;15.98;100.00
14089;BME280;7120;52.890;6.040;2023-07-20T06:13:22;101496.63;;;15.94;100.00
14089;BME280;7120;52.890;6.040;2023-07-20T06:15:48;101497.44;;;16.20;100.00
14089;BME280;7120;52.890;6.040;2023-07-20T06:18:14;101489.47;;;16.10;100.00
14089;BME280;7120;52.890;6.040;2023-07-20T06:20:40;101487.72;;;16.23;100.00
14089;BME280;7120;52.890;6.040;2023-07-20T06:23:05;101492.25;;;16.36;100.00
14089;BME280;7120;52.890;6.040;2023-07-20T06:25:31;101494.34;;;16.65;100.00
14089;BME280;7120;52.890;6.040;2023-07-20T06:27:56;101502.50;;;16.70;100.00
14089;BME280;7120;52.890;6.040;2023-07-20T06:30:22;101498.53;;;16.89;100.00
14089;BME280;7120;52.890;6.040;2023-07-20T06:32:48;101500.31;;;17.02;100.00
14089;BME280;7120;52.890;6.040;2023-07-20T06:35:13;101495.25;;;17.13;100.00
14089;BME280;7120;52.890;6.040;2023-07-20T06:37:39;101493.59;;;17.20;100.00
14089;BME280;7120;52.890;6.040;2023-07-20T06:40:05;101493.72;;;17.62;100.00
14089;BME280;7120;52.890;6.040;2023-07-20T06:42:31;101504.03;;;17.82;100.00
14089;BME280;7120;52.890;6.040;2023-07-20T06:44:57;101505.16;;;18.11;100.00
14089;BME280;7120;52.890;6.040;2023-07-20T06:47:23;101500.56;;;18.15;100.00
14089;BME280;7120;52.890;6.040;2023-07-20T06:49:48;101502.19;;;18.16;100.00
14089;BME280;7120;52.890;6.040;2023-07-20T06:52:14;101511.78;;;18.39;100.00
14089;BME280;7120;52.890;6.040;2023-07-20T06:54:40;101510.59;;;18.82;100.00
14089;BME280;7120;52.890;6.040;2023-07-20T06:57:05;101515.09;;;18.87;100.00
14089;BME280;7120;52.890;6.040;2023-07-20T06:59:31;101509.56;;;18.54;100.00
14089;BME280;7120;52.890;6.040;2023-07-20T07:01:56;101516.81;;;18.79;100.00
14089;BME280;7120;52.890;6.040;2023-07-20T07:04:21;101508.38;;;18.55;100.00
14089;BME280;7120;52.890;6.040;2023-07-20T07:06:47;101513.38;;;18.61;100.00
14089;BME280;7120;52.890;6.040;2023-07-20T07:09:13;101513.66;;;18.48;100.00
14089;BME280;7120;52.890;6.040;2023-07-20T07:11:39;101524.88;;;18.51;100.00
14089;BME280;7120;52.890;6.040;2023-07-20T07:14:04;101517.84;;;18.54;100.00
14089;BME280;7120;52.890;6.040;2023-07-20T07:16:30;101516.84;;;19.49;100.00
14089;BME280;7120;52.890;6.040;2023-07-20T07:18:55;101522.59;;;19.44;100.00
14089;BME280;7120;52.890;6.040;2023-07-20T07:21:21;101519.94;;;19.23;100.00
14089;BME280;7120;52.890;6.040;2023-07-20T07:23:46;101519.59;;;18.79;100.00
14089;BME280;7120;52.890;6.040;2023-07-20T07:26:12;101517.78;;;18.42;100.00
14089;BME280;7120;52.890;6.040;2023-07-20T07:28:38;101516.09;;;18.28;100.00
14089;BME280;7120;52.890;6.040;2023-07-20T07:31:06;101533.44;;;18.17;100.00
14089;BME280;7120;52.890;6.040;2023-07-20T07:33:32;101535.88;;;18.18;100.00
14089;BME280;7120;52.890;6.040;2023-07-20T07:35:58;101532.81;;;17.90;100.00
14089;BME280;7120;52.890;6.040;2023-07-20T07:38:24;101535.28;;;18.13;100.00
14089;BME280;7120;52.890;6.040;2023-07-20T07:40:49;101532.50;;;18.54;100.00
14089;BME280;7120;52.890;6.040;2023-07-20T07:43:14;101525.56;;;18.69;100.00
14089;BME280;7120;52.890;6.040;2023-07-20T07:45:40;101534.81;;;19.06;100.00
14089;BME280;7120;52.890;6.040;2023-07-20T07:48:06;101539.38;;;19.35;97.67
14089;BME280;7120;52.890;6.040;2023-07-20T07:50:33;101531.00;;;19.81;93.90
14089;BME280;7120;52.890;6.040;2023-07-20T07:52:58;101534.56;;;20.58;100.00
14089;BME280;7120;52.890;6.040;2023-07-20T07:55:24;101530.88;;;20.42;95.36
14089;BME280;7120;52.890;6.040;2023-07-20T07:57:52;101533.41;;;19.58;92.45
14089;BME280;7120;52.890;6.040;2023-07-20T08:00:18;101539.88;;;19.98;84.22
14089;BME280;7120;52.890;6.040;2023-07-20T08:02:45;101538.03;;;19.66;90.44
14089;BME280;7120;52.890;6.040;2023-07-20T08:05:12;101546.84;;;19.10;100.00
14089;BME280;7120;52.890;6.040;2023-07-20T08:07:38;101540.66;;;20.23;99.64
14089;BME280;7120;52.890;6.040;2023-07-20T08:10:04;101536.25;;;20.91;82.87
14089;BME280;7120;52.890;6.040;2023-07-20T08:12:30;101542.13;;;22.12;78.42
14089;BME280;7120;52.890;6.040;2023-07-20T08:14:56;101533.31;;;22.10;75.93
14089;BME280;7120;52.890;6.040;2023-07-20T08:17:22;101540.41;;;20.69;81.52
14089;BME280;7120;52.890;6.040;2023-07-20T08:19:48;101541.25;;;19.92;80.72
14089;BME280;7120;52.890;6.040;2023-07-20T08:22:14;101551.88;;;20.15;87.01
14089;BME280;7120;52.890;6.040;2023-07-20T08:24:40;101537.63;;;20.97;80.83
14089;BME280;7120;52.890;6.040;2023-07-20T08:27:06;101537.88;;;22.18;76.93
14089;BME280;7120;52.890;6.040;2023-07-20T08:29:32;101536.88;;;22.26;67.23
14089;BME280;7120;52.890;6.040;2023-07-20T08:31:58;101533.75;;;23.28;65.04
14089;BME280;7120;52.890;6.040;2023-07-20T08:34:23;101533.59;;;22.98;64.49
14089;BME280;7120;52.890;6.040;2023-07-20T08:36:49;101539.97;;;23.90;65.29
14089;BME280;7120;52.890;6.040;2023-07-20T08:39:14;101547.97;;;22.81;59.26
14089;BME280;7120;52.890;6.040;2023-07-20T08:41:42;101541.06;;;22.36;61.58
14089;BME280;7120;52.890;6.040;2023-07-20T08:44:08;101549.78;;;21.83;64.12
14089;BME280;7120;52.890;6.040;2023-07-20T08:46:35;101540.59;;;22.34;59.00
14089;BME280;7120;52.890;6.040;2023-07-20T08:49:03;101536.00;;;23.45;55.22
14089;BME280;7120;52.890;6.040;2023-07-20T08:51:30;101535.78;;;24.03;62.24
14089;BME280;7120;52.890;6.040;2023-07-20T08:53:56;101537.31;;;24.27;59.55
14089;BME280;7120;52.890;6.040;2023-07-20T08:56:24;101540.16;;;23.32;51.32
14089;BME280;7120;52.890;6.040;2023-07-20T08:58:52;101539.63;;;23.23;57.53
14089;BME280;7120;52.890;6.040;2023-07-20T09:01:19;101538.97;;;22.48;54.27
14089;BME280;7120;52.890;6.040;2023-07-20T09:03:46;101541.69;;;21.94;56.54
14089;BME280;7120;52.890;6.040;2023-07-20T09:06:13;101538.22;;;21.34;55.17
14089;BME280;7120;52.890;6.040;2023-07-20T09:08:42;101544.28;;;22.03;53.66
14089;BME280;7120;52.890;6.040;2023-07-20T09:11:10;101542.63;;;22.91;56.67
14089;BME280;7120;52.890;6.040;2023-07-20T09:13:37;101549.06;;;23.38;55.54
14089;BME280;7120;52.890;6.040;2023-07-20T09:16:03;101553.09;;;23.40;51.64
14089;BME280;7120;52.890;6.040;2023-07-20T09:18:31;101549.38;;;23.55;50.67
14089;BME280;7120;52.890;6.040;2023-07-20T09:20:58;101549.41;;;23.82;46.00
14089;BME280;7120;52.890;6.040;2023-07-20T09:23:33;101554.41;;;23.96;49.95
14089;BME280;7120;52.890;6.040;2023-07-20T09:25:59;101552.06;;;24.54;46.79
14089;BME280;7120;52.890;6.040;2023-07-20T09:28:24;101548.97;;;25.34;44.39
14089;BME280;7120;52.890;6.040;2023-07-20T09:30:50;101553.63;;;24.85;41.66
14089;BME280;7120;52.890;6.040;2023-07-20T09:33:21;101551.84;;;23.83;46.73
14089;BME280;7120;52.890;6.040;2023-07-20T09:35:47;101565.47;;;24.42;48.26
14089;BME280;7120;52.890;6.040;2023-07-20T09:38:14;101558.69;;;25.51;45.54
14089;BME280;7120;52.890;6.040;2023-07-20T09:40:41;101551.81;;;26.44;45.48
14089;BME280;7120;52.890;6.040;2023-07-20T09:43:11;101548.41;;;26.17;44.16
14089;BME280;7120;52.890;6.040;2023-07-20T09:45:41;101546.94;;;26.37;40.66
14089;BME280;7120;52.890;6.040;2023-07-20T09:48:08;101551.50;;;26.77;40.96
14089;BME280;7120;52.890;6.040;2023-07-20T09:50:39;101542.84;;;26.27;41.38
14089;BME280;7120;52.890;6.040;2023-07-20T09:53:05;101546.78;;;27.03;38.29
14089;BME280;7120;52.890;6.040;2023-07-20T09:55:33;101556.16;;;25.79;39.17
14089;BME280;7120;52.890;6.040;2023-07-20T09:58:00;101543.44;;;25.92;43.16
14089;BME280;7120;52.890;6.040;2023-07-20T10:00:26;101548.38;;;25.14;39.46
14089;BME280;7120;52.890;6.040;2023-07-20T10:02:52;101548.00;;;26.15;36.23
14089;BME280;7120;52.890;6.040;2023-07-20T10:05:19;101541.88;;;26.75;34.37
14089;BME280;7120;52.890;6.040;2023-07-20T10:07:49;101551.47;;;26.60;36.57
14089;BME280;7120;52.890;6.040;2023-07-20T10:10:18;101547.78;;;25.83;38.26
14089;BME280;7120;52.890;6.040;2023-07-20T10:12:48;101546.44;;;25.66;40.40
14089;BME280;7120;52.890;6.040;2023-07-20T10:15:24;101559.31;;;24.92;42.67
14089;BME280;7120;52.890;6.040;2023-07-20T10:18:14;101550.97;;;26.40;40.52
14089;BME280;7120;52.890;6.040;2023-07-20T10:20:43;101550.31;;;26.75;37.52
14089;BME280;7120;52.890;6.040;2023-07-20T10:23:10;101555.00;;;26.46;37.47
14089;BME280;7120;52.890;6.040;2023-07-20T10:25:37;101541.84;;;26.61;38.27
14089;BME280;7120;52.890;6.040;2023-07-20T10:28:05;101548.84;;;27.27;38.25
14089;BME280;7120;52.890;6.040;2023-07-20T10:30:34;101537.47;;;25.97;37.59
14089;BME280;7120;52.890;6.040;2023-07-20T10:33:04;101544.03;;;24.83;41.20
14089;BME280;7120;52.890;6.040;2023-07-20T10:35:50;101548.50;;;24.57;39.84
14089;BME280;7120;52.890;6.040;2023-07-20T10:38:16;101538.88;;;25.26;40.23
14089;BME280;7120;52.890;6.040;2023-07-20T10:40:42;101540.63;;;26.58;37.43
14089;BME280;7120;52.890;6.040;2023-07-20T10:43:10;101541.72;;;25.73;36.33
14089;BME280;7120;52.890;6.040;2023-07-20T10:45:40;101541.78;;;25.81;38.70
14089;BME280;7120;52.890;6.040;2023-07-20T10:48:22;101530.06;;;25.71;37.07
14089;BME280;7120;52.890;6.040;2023-07-20T10:51:12;101548.66;;;24.68;39.51
14089;BME280;7120;52.890;6.040;2023-07-20T10:53:40;101543.53;;;25.11;41.06
14089;BME280;7120;52.890;6.040;2023-07-20T10:56:13;101545.22;;;24.22;44.59
14089;BME280;7120;52.890;6.040;2023-07-20T10:58:42;101543.81;;;23.82;43.37
14089;BME280;7120;52.890;6.040;2023-07-20T11:01:08;101542.91;;;23.74;44.91
14089;BME280;7120;52.890;6.040;2023-07-20T11:03:36;101545.06;;;23.16;45.82
14089;BME280;7120;52.890;6.040;2023-07-20T11:09:05;101548.59;;;23.58;49.67
14089;BME280;7120;52.890;6.040;2023-07-20T11:11:35;101539.38;;;23.32;46.58
14089;BME280;7120;52.890;6.040;2023-07-20T11:14:04;101549.91;;;24.14;48.07
14089;BME280;7120;52.890;6.040;2023-07-20T11:16:43;101534.72;;;24.42;47.38
14089;BME280;7120;52.890;6.040;2023-07-20T11:19:24;101537.88;;;24.70;47.54
14089;BME280;7120;52.890;6.040;2023-07-20T11:21:54;101529.31;;;23.99;46.62
14089;BME280;7120;52.890;6.040;2023-07-20T11:24:20;101541.13;;;23.89;48.06
14089;BME280;7120;52.890;6.040;2023-07-20T11:26:47;101534.84;;;23.46;50.40
14089;BME280;7120;52.890;6.040;2023-07-20T11:29:14;101538.94;;;23.75;51.78
14089;BME280;7120;52.890;6.040;2023-07-20T11:31:42;101535.00;;;25.37;52.61
14089;BME280;7120;52.890;6.040;2023-07-20T11:34:11;101529.41;;;25.37;48.52
14089;BME280;7120;52.890;6.040;2023-07-20T11:36:39;101526.94;;;24.28;49.69
14089;BME280;7120;52.890;6.040;2023-07-20T11:39:08;101529.06;;;25.46;46.13
14089;BME280;7120;52.890;6.040;2023-07-20T11:41:34;101522.81;;;26.22;45.64
14089;BME280;7120;52.890;6.040;2023-07-20T11:44:00;101523.44;;;26.74;42.59
14089;BME280;7120;52.890;6.040;2023-07-20T11:46:27;101527.41;;;26.62;44.17
14089;BME280;7120;52.890;6.040;2023-07-20T11:48:58;101528.69;;;26.82;40.88
14089;BME280;7120;52.890;6.040;2023-07-20T11:51:26;101520.63;;;26.74;43.95
14089;BME280;7120;52.890;6.040;2023-07-20T11:53:53;101526.19;;;25.83;41.41
14089;BME280;7120;52.890;6.040;2023-07-20T11:56:19;101518.25;;;25.44;42.97
14089;BME280;7120;52.890;6.040;2023-07-20T11:58:45;101513.41;;;25.41;42.07
14089;BME280;7120;52.890;6.040;2023-07-20T12:01:16;101516.97;;;25.35;43.21
14089;BME280;7120;52.890;6.040;2023-07-20T12:03:43;101523.03;;;24.66;41.16
14089;BME280;7120;52.890;6.040;2023-07-20T12:06:10;101523.25;;;24.50;42.76
14089;BME280;7120;52.890;6.040;2023-07-20T12:08:41;101525.69;;;24.89;41.39
14089;BME280;7120;52.890;6.040;2023-07-20T12:11:07;101520.31;;;24.40;40.68
14089;BME280;7120;52.890;6.040;2023-07-20T12:13:42;101515.25;;;24.52;42.69
14089;BME280;7120;52.890;6.040;2023-07-20T12:16:12;101512.13;;;24.27;42.85
14089;BME280;7120;52.890;6.040;2023-07-20T12:18:39;101520.84;;;24.22;47.24
14089;BME280;7120;52.890;6.040;2023-07-20T12:21:06;101522.72;;;24.11;46.72
14089;BME280;7120;52.890;6.040;2023-07-20T12:23:37;101526.34;;;23.39;50.81
14089;BME280;7120;52.890;6.040;2023-07-20T12:26:06;101520.00;;;22.96;53.15
14089;BME280;7120;52.890;6.040;2023-07-20T12:28:32;101511.44;;;22.86;54.50
14089;BME280;7120;52.890;6.040;2023-07-20T12:30:58;101515.97;;;22.74;62.27
14089;BME280;7120;52.890;6.040;2023-07-20T12:33:24;101518.91;;;23.01;58.18
14089;BME280;7120;52.890;6.040;2023-07-20T12:35:49;101514.63;;;24.66;47.43
14089;BME280;7120;52.890;6.040;2023-07-20T12:38:15;101509.22;;;25.17;42.82
14089;BME280;7120;52.890;6.040;2023-07-20T12:40:42;101513.13;;;26.09;41.80
14089;BME280;7120;52.890;6.040;2023-07-20T12:43:09;101504.25;;;26.94;38.99
14089;BME280;7120;52.890;6.040;2023-07-20T12:45:34;101510.63;;;28.12;40.79
14089;BME280;7120;52.890;6.040;2023-07-20T12:48:00;101506.31;;;27.68;37.21
14089;BME280;7120;52.890;6.040;2023-07-20T12:50:26;101505.91;;;27.20;34.72
14089;BME280;7120;52.890;6.040;2023-07-20T12:52:52;101498.00;;;26.35;37.26
14089;BME280;7120;52.890;6.040;2023-07-20T12:55:17;101507.03;;;25.99;37.23
14089;BME280;7120;52.890;6.040;2023-07-20T12:57:43;101503.22;;;26.33;35.92
14089;BME280;7120;52.890;6.040;2023-07-20T13:00:10;101505.50;;;27.07;32.99
14089;BME280;7120;52.890;6.040;2023-07-20T13:02:35;101505.09;;;27.33;35.58